createdAt,value
2022-10-12T00:00:31.604Z,101830.75
2022-10-12T00:03:36.752Z,101838.75
2022-10-12T00:06:41.188Z,101823.72
2022-10-12T00:09:45.805Z,101848.31
2022-10-12T00:12:50.257Z,101834.66
2022-10-12T00:15:54.809Z,101839.78
2022-10-12T00:18:59.964Z,101845.69
2022-10-12T00:22:04.252Z,101849.78
2022-10-12T00:25:09.367Z,101856.59
2022-10-12T00:28:14.264Z,101862.66
2022-10-12T00:31:21.842Z,101855.72
2022-10-12T00:34:26.311Z,101858.78
2022-10-12T00:37:30.755Z,101856.38
2022-10-12T00:40:35.302Z,101855.34
2022-10-12T00:43:42.889Z,101862.78
2022-10-12T00:46:48.118Z,101875.03
2022-10-12T00:49:57.442Z,101825.28
2022-10-12T00:53:16.759Z,101865.66
2022-10-12T00:56:25.357Z,101836.28
2022-10-12T00:59:37.584Z,101842.41
2022-10-12T01:02:44.412Z,101859.50
2022-10-12T01:05:49.338Z,101873.13
2022-10-12T01:08:56.290Z,101865.81
2022-10-12T01:12:01.356Z,101861.28
2022-10-12T01:15:06.836Z,101863.19
2022-10-12T01:18:23.041Z,101862.34
2022-10-12T01:21:28.314Z,101869.03
2022-10-12T01:24:52.548Z,101860.50
2022-10-12T01:28:05.382Z,101849.81
2022-10-12T01:31:21.575Z,101862.72
2022-10-12T01:34:45.001Z,101855.72
2022-10-12T01:38:06.941Z,101778.66
2022-10-12T01:41:16.058Z,101867.63
2022-10-12T01:44:25.370Z,101838.06
2022-10-12T01:47:30.106Z,101867.09
2022-10-12T01:50:51.820Z,101867.94
2022-10-12T01:54:22.834Z,101842.44
2022-10-12T01:57:54.308Z,101871.75
2022-10-12T02:01:17.078Z,101878.34
2022-10-12T02:05:01.599Z,101878.34
2022-10-12T02:08:31.532Z,101884.19
2022-10-12T02:11:39.089Z,101874.22
2022-10-12T02:14:58.484Z,101876.47
2022-10-12T02:18:06.583Z,101867.09
2022-10-12T02:21:15.173Z,101872.84
2022-10-12T02:24:22.313Z,101872.75
2022-10-12T02:27:28.490Z,101868.06
2022-10-12T02:30:39.685Z,101828.91
2022-10-12T02:34:05.637Z,101873.44
2022-10-12T02:37:50.092Z,101859.00
2022-10-12T02:40:59.432Z,101862.56
2022-10-12T02:44:09.326Z,101870.13
2022-10-12T02:47:17.746Z,101848.81
2022-10-12T02:50:24.372Z,101846.59
2022-10-12T02:53:31.059Z,101850.47
2022-10-12T02:56:35.451Z,101869.03
2022-10-12T02:59:39.905Z,101858.41
2022-10-12T03:02:44.550Z,101856.91
2022-10-12T03:05:48.840Z,101853.84
2022-10-12T03:08:56.887Z,101844.53
2022-10-12T03:12:01.315Z,101864.00
2022-10-12T03:15:06.550Z,101839.63
2022-10-12T03:18:11.385Z,101851.69
2022-10-12T03:21:16.290Z,101845.25
2022-10-12T03:24:21.055Z,101846.59
2022-10-12T03:27:26.130Z,101849.78
2022-10-12T03:30:30.742Z,101846.34
2022-10-12T03:33:35.027Z,101850.72
2022-10-12T03:36:39.735Z,101829.88
2022-10-12T03:39:44.130Z,101849.28
2022-10-12T03:42:48.600Z,101835.84
2022-10-12T03:45:53.412Z,101848.88
2022-10-12T03:49:00.195Z,101817.28
2022-10-12T03:52:07.502Z,101839.66
2022-10-12T03:55:12.161Z,101825.63
2022-10-12T03:58:17.221Z,101826.25
2022-10-12T04:01:22.025Z,101843.97
2022-10-12T04:04:26.648Z,101837.03
2022-10-12T04:07:30.884Z,101829.03
2022-10-12T04:10:35.483Z,101830.63
2022-10-12T04:13:39.921Z,101831.69
2022-10-12T04:16:44.196Z,101819.94
2022-10-12T04:19:48.873Z,101838.59
2022-10-12T04:22:53.364Z,101817.38
2022-10-12T04:25:57.862Z,101816.53
2022-10-12T04:29:02.419Z,101834.31
2022-10-12T04:32:12.209Z,101831.59
2022-10-12T04:35:17.157Z,101835.03
2022-10-12T04:38:21.760Z,101821.09
2022-10-12T04:41:26.174Z,101819.00
2022-10-12T04:44:32.334Z,101827.09
2022-10-12T04:47:37.504Z,101819.06
2022-10-12T04:50:42.172Z,101816.53
2022-10-12T04:53:46.707Z,101817.28
2022-10-12T04:56:51.641Z,101808.41
2022-10-12T04:59:56.241Z,101806.56
2022-10-12T05:03:00.559Z,101814.56
2022-10-12T05:06:05.168Z,101818.03
2022-10-12T05:09:13.196Z,101808.13
2022-10-12T05:12:20.886Z,101800.38
2022-10-12T05:15:25.856Z,101815.63
2022-10-12T05:18:30.469Z,101809.56
2022-10-12T05:21:35.328Z,101804.09
2022-10-12T05:24:39.763Z,101818.47
2022-10-12T05:27:44.331Z,101819.31
2022-10-12T05:30:52.628Z,101824.66
2022-10-12T05:33:56.754Z,101823.88
2022-10-12T05:37:01.372Z,101812.09
2022-10-12T05:40:06.320Z,101816.38
2022-10-12T05:43:10.729Z,101825.41
2022-10-12T05:46:15.133Z,101815.47
2022-10-12T05:49:19.601Z,101831.13
2022-10-12T05:52:23.968Z,101821.38
2022-10-12T05:55:28.431Z,101822.56
2022-10-12T05:58:33.246Z,101829.56
2022-10-12T06:01:37.712Z,101819.06
2022-10-12T06:04:42.192Z,101832.03
2022-10-12T06:07:46.660Z,101840.16
2022-10-12T06:10:53.198Z,101833.19
2022-10-12T06:13:57.583Z,101830.91
2022-10-12T06:17:01.898Z,101828.06
2022-10-12T06:20:07.002Z,101837.78
2022-10-12T06:23:11.330Z,101843.16
2022-10-12T06:26:17.242Z,101841.78
2022-10-12T06:29:24.012Z,101813.50
2022-10-12T06:32:28.356Z,101847.09
2022-10-12T06:35:32.904Z,101855.09
2022-10-12T06:38:37.661Z,101841.13
2022-10-12T06:41:41.952Z,101846.34
2022-10-12T06:44:46.518Z,101853.38
2022-10-12T06:47:50.806Z,101855.94
2022-10-12T06:50:55.281Z,101853.31
2022-10-12T06:53:59.374Z,101858.66
2022-10-12T06:57:04.068Z,101842.19
2022-10-12T07:00:10.588Z,101865.34
2022-10-12T07:03:15.179Z,101860.00
2022-10-12T07:06:20.072Z,101867.09
2022-10-12T07:09:24.698Z,101835.50
2022-10-12T07:12:28.864Z,101866.28
2022-10-12T07:15:33.283Z,101852.00
2022-10-12T07:18:37.797Z,101865.34
2022-10-12T07:21:42.877Z,101857.63
2022-10-12T07:24:47.570Z,101874.47
2022-10-12T07:27:51.831Z,101871.81
2022-10-12T07:31:01.205Z,101863.09
2022-10-12T07:34:05.766Z,101873.81
2022-10-12T07:37:10.242Z,101858.94
2022-10-12T07:40:15.203Z,101869.53
2022-10-12T07:43:19.902Z,101859.75
2022-10-12T07:46:26.165Z,101864.31
2022-10-12T07:49:30.767Z,101870.63
2022-10-12T07:52:35.488Z,101875.25
2022-10-12T07:55:40.065Z,101866.50
2022-10-12T07:58:50.970Z,101849.97
2022-10-12T08:01:55.605Z,101875.63
2022-10-12T08:05:00.133Z,101879.47
2022-10-12T08:08:04.483Z,101890.19
2022-10-12T08:11:09.882Z,101892.03
2022-10-12T08:14:16.459Z,101897.44
2022-10-12T08:17:20.975Z,101885.22
2022-10-12T08:20:25.232Z,101882.75
2022-10-12T08:23:30.859Z,101849.19
2022-10-12T08:26:35.527Z,101876.63
2022-10-12T08:29:41.663Z,101894.38
2022-10-12T08:32:46.778Z,101859.97
2022-10-12T08:35:51.254Z,101896.19
2022-10-12T08:38:57.251Z,101898.00
2022-10-12T08:42:17.604Z,101892.72
2022-10-12T08:45:30.053Z,101913.91
2022-10-12T08:48:48.295Z,101903.25
2022-10-12T08:52:02.437Z,101910.38
2022-10-12T08:55:21.867Z,101907.63
2022-10-12T08:58:33.539Z,101911.91
2022-10-12T09:01:52.028Z,101919.81
2022-10-12T09:05:18.434Z,101911.75
2022-10-12T09:08:25.159Z,101938.94
2022-10-12T09:11:48.512Z,101934.59
2022-10-12T09:14:58.240Z,101930.97
2022-10-12T09:18:07.199Z,101945.13
2022-10-12T09:21:19.901Z,101922.78
2022-10-12T09:24:28.206Z,101936.06
2022-10-12T09:27:33.575Z,101932.50
2022-10-12T09:30:42.992Z,101945.63
2022-10-12T09:33:58.506Z,101942.91
2022-10-12T09:37:05.804Z,101947.47
2022-10-12T09:40:27.533Z,101955.16
2022-10-12T09:43:32.712Z,101942.31
2022-10-12T09:47:07.180Z,101954.47
2022-10-12T09:50:11.892Z,101929.56
2022-10-12T09:53:37.069Z,101955.13
2022-10-12T09:56:50.896Z,101962.31
2022-10-12T09:59:56.973Z,101961.94
2022-10-12T10:03:03.063Z,101951.66
2022-10-12T10:06:08.117Z,101959.66
2022-10-12T10:09:30.313Z,101965.25
2022-10-12T10:12:39.761Z,101977.97
2022-10-12T10:15:49.390Z,101961.13
2022-10-12T10:18:56.979Z,101974.13
2022-10-12T10:22:10.103Z,101954.53
2022-10-12T10:25:22.623Z,101965.88
2022-10-12T10:28:31.729Z,101979.00
2022-10-12T10:31:36.559Z,101971.66
2022-10-12T10:34:43.658Z,101974.28
2022-10-12T10:37:56.693Z,101979.34
2022-10-12T10:41:05.224Z,101970.91
2022-10-12T10:44:23.513Z,101952.22
2022-10-12T10:47:28.950Z,101963.97
2022-10-12T10:50:43.862Z,101977.13
2022-10-12T10:53:51.286Z,101971.44
2022-10-12T10:57:05.395Z,101980.88
2022-10-12T11:00:45.184Z,101987.59
2022-10-12T11:04:18.211Z,101989.53
2022-10-12T11:07:42.843Z,101996.47
2022-10-12T11:10:57.488Z,101989.38
2022-10-12T11:14:09.591Z,101998.81
2022-10-12T11:17:39.107Z,101994.28
2022-10-12T11:21:33.851Z,101989.38
2022-10-12T11:24:43.144Z,101977.47
2022-10-12T11:27:52.773Z,102000.38
2022-10-12T11:30:58.794Z,101997.75
2022-10-12T11:34:13.350Z,102001.38
2022-10-12T11:37:24.882Z,102001.03
2022-10-12T11:44:44.915Z,101986.19
2022-10-12T11:47:53.538Z,102005.56
2022-10-12T11:51:04.103Z,101992.25
2022-10-12T11:54:26.986Z,102012.31
2022-10-12T11:57:38.317Z,102016.47
2022-10-12T12:01:17.743Z,101999.22
2022-10-12T12:04:48.460Z,101854.00
2022-10-12T12:07:57.786Z,102017.28
2022-10-12T12:11:19.787Z,102024.97
2022-10-12T12:14:29.940Z,102021.66
2022-10-12T12:17:36.060Z,102028.91
2022-10-12T12:20:47.785Z,102029.50
2022-10-12T12:23:57.382Z,102027.25
2022-10-12T12:27:02.194Z,102008.81
2022-10-12T12:30:25.403Z,102013.97
2022-10-12T12:33:42.738Z,102016.66
2022-10-12T12:36:50.915Z,102022.06
2022-10-12T12:39:58.737Z,101896.66
2022-10-12T12:43:36.514Z,102029.09
2022-10-12T12:46:57.856Z,102033.13
2022-10-12T12:50:40.120Z,102030.09
2022-10-12T12:53:50.202Z,102030.47
2022-10-12T12:57:13.946Z,102036.19
2022-10-12T13:00:23.160Z,102027.34
2022-10-12T13:03:34.268Z,102011.25
2022-10-12T13:06:49.105Z,102021.25
2022-10-12T13:10:13.492Z,102025.81
2022-10-12T13:13:29.650Z,102021.69
2022-10-12T13:17:30.703Z,102016.72
2022-10-12T13:20:18.780Z,102017.72
2022-10-12T13:23:27.403Z,101999.56
2022-10-12T13:26:33.465Z,101985.97
2022-10-12T13:29:49.815Z,101997.41
2022-10-12T13:32:59.236Z,102009.16
2022-10-12T13:36:18.401Z,102007.88
2022-10-12T13:39:23.904Z,102011.53
2022-10-12T13:42:33.624Z,102009.00
2022-10-12T13:45:46.896Z,101959.56
2022-10-12T13:49:00.011Z,102021.34
2022-10-12T13:52:22.679Z,102016.41
2022-10-12T13:55:27.922Z,102011.41
2022-10-12T13:58:36.270Z,102011.22
2022-10-12T14:01:54.187Z,102001.50
2022-10-12T14:05:00.862Z,101975.59
2022-10-12T14:08:15.847Z,102001.00
2022-10-12T14:11:21.037Z,101992.94
2022-10-12T14:14:37.701Z,101995.97
2022-10-12T14:17:47.514Z,101992.59
2022-10-12T14:20:52.459Z,101983.25
2022-10-12T14:24:00.472Z,101991.09
2022-10-12T14:27:10.256Z,101977.19
2022-10-12T14:30:31.598Z,101991.66
2022-10-12T14:33:36.289Z,101995.97
2022-10-12T14:36:41.177Z,101981.00
2022-10-12T14:39:48.571Z,101980.84
2022-10-12T14:43:01.391Z,101967.81
2022-10-12T14:46:07.821Z,101962.50
2022-10-12T14:49:23.687Z,101981.09
2022-10-12T14:52:36.657Z,101981.94
2022-10-12T14:55:42.384Z,101962.09
2022-10-12T14:58:46.842Z,101979.03
2022-10-12T15:01:51.661Z,101969.63
2022-10-12T15:04:57.525Z,101950.75
2022-10-12T15:08:08.256Z,101968.47
2022-10-12T15:11:14.849Z,101963.22
2022-10-12T15:14:19.330Z,101960.06
2022-10-12T15:17:24.419Z,101966.72
2022-10-12T15:20:30.768Z,101966.91
2022-10-12T15:23:35.455Z,101968.88
2022-10-12T15:26:42.324Z,101968.66
2022-10-12T15:29:48.972Z,101973.72
2022-10-12T15:32:54.432Z,101962.63
2022-10-12T15:35:59.085Z,101962.59
2022-10-12T15:39:03.589Z,101969.16
2022-10-12T15:42:09.084Z,101965.69
2022-10-12T15:45:14.158Z,101975.50
2022-10-12T15:48:18.855Z,101969.13
2022-10-12T15:51:25.628Z,101969.59
2022-10-12T15:54:30.149Z,101960.25
2022-10-12T15:57:34.478Z,101959.06
2022-10-12T16:00:38.975Z,101941.88
2022-10-12T16:03:44.146Z,101958.66
2022-10-12T16:06:48.456Z,101957.97
2022-10-12T16:09:52.896Z,101948.44
2022-10-12T16:12:57.630Z,101958.25
2022-10-12T16:16:02.230Z,101938.44
2022-10-12T16:19:06.751Z,101947.75
2022-10-12T16:22:12.642Z,101949.72
2022-10-12T16:25:19.902Z,101946.94
2022-10-12T16:28:25.866Z,101945.75
2022-10-12T16:31:30.710Z,101944.03
2022-10-12T16:34:35.384Z,101936.34
2022-10-12T16:37:39.835Z,101935.50
2022-10-12T16:40:44.525Z,101950.53
2022-10-12T16:43:49.014Z,101934.72
2022-10-12T16:46:53.384Z,101927.69
2022-10-12T16:49:57.616Z,101947.38
2022-10-12T16:53:01.934Z,101948.34
2022-10-12T16:56:06.764Z,101950.88
2022-10-12T16:59:11.531Z,101933.41
2022-10-12T17:02:17.273Z,101949.31
2022-10-12T17:05:22.641Z,101957.41
2022-10-12T17:08:27.677Z,101925.53
2022-10-12T17:11:32.331Z,101968.00
2022-10-12T17:14:36.980Z,101955.91
2022-10-12T17:17:41.370Z,101950.00
2022-10-12T17:20:48.224Z,101931.16
2022-10-12T17:24:00.178Z,101938.09
2022-10-12T17:27:06.527Z,101939.75
2022-10-12T17:30:11.657Z,101932.72
2022-10-12T17:33:17.455Z,101940.44
2022-10-12T17:36:28.020Z,101934.16
2022-10-12T17:39:37.652Z,101932.53
2022-10-12T17:42:42.365Z,101926.31
2022-10-12T17:45:47.069Z,101919.25
2022-10-12T17:48:53.211Z,101929.31
2022-10-12T17:51:58.171Z,101923.19
2022-10-12T17:55:02.731Z,101923.72
2022-10-12T17:58:07.596Z,101920.13
2022-10-12T18:01:15.140Z,101922.41
2022-10-12T18:04:20.832Z,101912.88
2022-10-12T18:07:25.494Z,101890.78
2022-10-12T18:10:30.116Z,101891.63
2022-10-12T18:13:35.917Z,101907.47
2022-10-12T18:16:42.114Z,101905.59
2022-10-12T18:19:48.019Z,101885.09
2022-10-12T18:22:52.812Z,101880.22
2022-10-12T18:25:57.196Z,101888.41
2022-10-12T18:29:02.932Z,101900.13
2022-10-12T18:32:07.855Z,101897.81
2022-10-12T18:35:12.392Z,101878.81
2022-10-12T18:38:17.091Z,101883.19
2022-10-12T18:41:23.426Z,101875.31
2022-10-12T18:44:28.390Z,101872.13
2022-10-12T18:47:32.730Z,101876.41
2022-10-12T18:50:38.800Z,101867.72
2022-10-12T18:53:43.527Z,101870.09
2022-10-12T18:56:48.035Z,101860.81
2022-10-12T18:59:53.146Z,101846.94
2022-10-12T19:02:57.904Z,101847.16
2022-10-12T19:06:10.985Z,101823.50
2022-10-12T19:09:15.767Z,101843.34
2022-10-12T19:12:20.611Z,101848.78
2022-10-12T19:15:27.076Z,101864.72
2022-10-12T19:18:31.398Z,101868.03
2022-10-12T19:21:36.277Z,101895.06
2022-10-12T19:24:40.644Z,101886.94
2022-10-12T19:27:45.034Z,101898.94
2022-10-12T19:30:49.437Z,101869.88
2022-10-12T19:33:59.561Z,101886.72
2022-10-12T19:37:03.933Z,101876.34
2022-10-12T19:40:12.408Z,101877.06
2022-10-12T19:43:16.824Z,101874.91
2022-10-12T19:46:22.339Z,101885.06
2022-10-12T19:49:26.532Z,101884.19
2022-10-12T19:52:31.000Z,101879.59
2022-10-12T19:55:35.715Z,101874.25
2022-10-12T19:58:40.132Z,101871.66
2022-10-12T20:01:48.773Z,101898.94
2022-10-12T20:04:55.102Z,101879.50
2022-10-12T20:07:59.693Z,101844.00
2022-10-12T20:11:04.709Z,101876.09
2022-10-12T20:14:09.296Z,101869.78
2022-10-12T20:17:13.808Z,101857.56
2022-10-12T20:20:18.397Z,101865.78
2022-10-12T20:23:23.799Z,101863.16
2022-10-12T20:26:29.755Z,101844.38
2022-10-12T20:29:33.715Z,101856.72
2022-10-12T20:32:38.414Z,101811.78
2022-10-12T20:35:50.430Z,101852.81
2022-10-12T20:38:54.985Z,101841.16
2022-10-12T20:41:59.336Z,101835.38
2022-10-12T20:45:03.709Z,101845.75
2022-10-12T20:48:09.830Z,101843.66
2022-10-12T20:51:24.379Z,101848.16
2022-10-12T20:54:30.585Z,101857.03
2022-10-12T20:57:34.986Z,101841.75
2022-10-12T21:00:39.633Z,101822.19
2022-10-12T21:03:44.255Z,101847.03
2022-10-12T21:06:48.661Z,101844.44
2022-10-12T21:09:53.271Z,101818.63
2022-10-12T21:12:57.549Z,101830.34
2022-10-12T21:16:02.454Z,101831.03
2022-10-12T21:19:06.922Z,101846.59
2022-10-12T21:22:11.266Z,101828.91
2022-10-12T21:25:15.904Z,101813.09
2022-10-12T21:28:21.164Z,101830.81
2022-10-12T21:31:30.961Z,101818.44
2022-10-12T21:34:36.570Z,101838.63
2022-10-12T21:37:40.988Z,101834.34
2022-10-12T21:40:45.604Z,101819.88
2022-10-12T21:43:51.830Z,101824.59
2022-10-12T21:46:56.116Z,101770.78
2022-10-12T21:50:00.506Z,101820.72
2022-10-12T21:53:05.018Z,101820.59
2022-10-12T21:56:11.216Z,101826.59
2022-10-12T21:59:15.863Z,101807.19
2022-10-12T22:02:20.902Z,101812.38
2022-10-12T22:05:25.609Z,101801.03
2022-10-12T22:08:30.419Z,101796.81
2022-10-12T22:11:37.295Z,101829.19
2022-10-12T22:14:45.275Z,101816.88
2022-10-12T22:17:49.831Z,101829.47
2022-10-12T22:20:54.175Z,101799.44
2022-10-12T22:23:59.266Z,101817.63
2022-10-12T22:27:03.569Z,101821.28
2022-10-12T22:30:08.626Z,101814.72
2022-10-12T22:33:13.056Z,101825.78
2022-10-12T22:36:18.272Z,101801.16
2022-10-12T22:39:22.765Z,101799.34
2022-10-12T22:42:27.235Z,101817.91
2022-10-12T22:45:31.819Z,101789.91
2022-10-12T22:48:37.568Z,101811.25
2022-10-12T22:51:41.755Z,101805.97
2022-10-12T22:54:46.329Z,101798.88
2022-10-12T22:57:50.893Z,101783.78
2022-10-12T23:01:03.495Z,101803.94
2022-10-12T23:04:09.147Z,101811.06
2022-10-12T23:07:13.629Z,101803.19
2022-10-12T23:10:17.992Z,101811.22
2022-10-12T23:13:22.431Z,101817.50
2022-10-12T23:16:29.824Z,101812.16
2022-10-12T23:19:35.096Z,101821.88
2022-10-12T23:22:39.513Z,101823.63
2022-10-12T23:25:44.021Z,101779.34
2022-10-12T23:28:50.205Z,101807.72
2022-10-12T23:31:54.853Z,101812.19
2022-10-12T23:34:59.095Z,101794.47
2022-10-12T23:38:03.501Z,101809.50
2022-10-12T23:41:08.467Z,101815.69
2022-10-12T23:44:13.221Z,101776.78
2022-10-12T23:47:17.703Z,101794.56
2022-10-12T23:50:22.057Z,101803.47
2022-10-12T23:53:26.744Z,101812.28
2022-10-12T23:56:31.136Z,101757.53
2022-10-12T23:59:38.201Z,101806.91
